Time;durP1;ratioP1;P1;durP2;ratioP2;P2;SDS_P1;SDS_P2;PMS_P1;PMS_P2;Temp;Humidity;BMP_temperature;BMP_pressure;BME280_temperature;BME280_humidity;BME280_pressure;Samples;Min_cycle;Max_cycle;Signal;HPM_P1;HPM_P2
2023/04/12 00:01:58;;;;;;;6.65;1.77;;;7.70;99.90;;;;;;5090496;28;20054;-56
2023/04/12 00:04:25;;;;;;;6.53;1.90;;;7.80;99.90;;;;;;5092328;28;20044;-54
2023/04/12 00:06:53;;;;;;;14.00;2.28;;;7.70;99.90;;;;;;5099726;28;20042;-55
2023/04/12 00:09:19;;;;;;;6.68;1.90;;;7.80;99.90;;;;;;5106291;28;20123;-57
2023/04/12 00:11:45;;;;;;;14.63;1.92;;;7.80;99.90;;;;;;5092580;28;20397;-56
2023/04/12 00:14:10;;;;;;;9.70;1.75;;;7.80;99.90;;;;;;5103168;28;20115;-55
2023/04/12 00:16:37;;;;;;;9.55;2.00;;;7.90;99.90;;;;;;5094257;28;20036;-54
2023/04/12 00:19:03;;;;;;;8.00;1.90;;;7.90;99.90;;;;;;5106203;28;20043;-56
2023/04/12 00:21:29;;;;;;;8.40;2.15;;;8.00;99.90;;;;;;5095044;28;20126;-57
2023/04/12 00:23:55;;;;;;;8.80;1.88;;;8.00;99.90;;;;;;5105065;28;20118;-56
2023/04/12 00:26:21;;;;;;;9.90;2.60;;;8.00;99.90;;;;;;5098675;28;20066;-57
2023/04/12 00:28:47;;;;;;;9.25;1.80;;;8.10;99.90;;;;;;5090430;28;20500;-57
2023/04/12 00:31:12;;;;;;;12.32;2.40;;;8.10;99.90;;;;;;5101043;28;20539;-56
2023/04/12 00:33:38;;;;;;;6.97;1.70;;;8.20;99.90;;;;;;5104757;28;20039;-57
2023/04/12 00:36:04;;;;;;;5.90;1.27;;;8.20;99.90;;;;;;5098486;28;20277;-54
2023/04/12 00:38:30;;;;;;;10.48;2.92;;;8.30;99.90;;;;;;5090573;28;20119;-55
2023/04/12 00:40:55;;;;;;;12.20;1.80;;;8.30;99.90;;;;;;5097114;28;20044;-57
2023/04/12 00:43:22;;;;;;;11.03;2.47;;;8.40;99.90;;;;;;5099780;28;20657;-55
2023/04/12 00:45:48;;;;;;;19.85;2.65;;;8.40;99.90;;;;;;5098934;28;20286;-54
2023/04/12 00:48:15;;;;;;;10.13;2.75;;;8.50;99.90;;;;;;5091969;28;20035;-57
2023/04/12 00:50:43;;;;;;;13.45;3.60;;;8.60;99.90;;;;;;5093698;28;20040;-56
2023/04/12 00:53:12;;;;;;;8.60;2.38;;;8.60;99.90;;;;;;5090609;28;20040;-57
2023/04/12 00:55:39;;;;;;;4.25;1.30;;;8.70;99.90;;;;;;5102382;28;20040;-56
2023/04/12 00:58:05;;;;;;;9.55;1.95;;;8.60;99.90;;;;;;5090647;28;20031;-56
2023/04/12 01:00:31;;;;;;;6.97;1.43;;;8.70;99.90;;;;;;5107032;28;20453;-57
2023/04/12 01:02:57;;;;;;;6.13;2.13;;;8.70;99.90;;;;;;5089646;28;20100;-55
2023/04/12 01:05:23;;;;;;;11.73;1.80;;;8.70;99.90;;;;;;5091839;28;20497;-56
2023/04/12 01:08:18;;;;;;;10.60;2.15;;;8.80;99.90;;;;;;5102791;28;20040;-58
2023/04/12 01:11:04;;;;;;;8.45;2.60;;;8.90;99.90;;;;;;5104487;28;20047;-57
2023/04/12 01:13:47;;;;;;;9.40;3.20;;;8.90;99.90;;;;;;5106934;28;20491;-57
2023/04/12 01:16:18;;;;;;;8.18;2.17;;;8.90;99.90;;;;;;5104088;28;20490;-53
2023/04/12 01:18:50;;;;;;;10.68;1.80;;;9.00;99.90;;;;;;5088402;28;20047;-56
2023/04/12 01:21:22;;;;;;;8.95;2.10;;;9.00;99.90;;;;;;5099546;28;20036;-56
2023/04/12 01:24:19;;;;;;;11.68;2.03;;;9.00;99.90;;;;;;5090523;28;20918;-56
2023/04/12 01:26:50;;;;;;;6.35;1.63;;;9.00;99.90;;;;;;5100909;28;20477;-57
2023/04/12 01:29:20;;;;;;;13.77;2.33;;;9.00;99.90;;;;;;5091211;28;20102;-56
2023/04/12 01:31:51;;;;;;;10.18;2.33;;;9.10;99.90;;;;;;5095712;28;20039;-56
2023/04/12 01:34:19;;;;;;;5.68;1.80;;;9.10;99.90;;;;;;5105354;28;20506;-55
2023/04/12 01:36:46;;;;;;;5.60;1.88;;;9.20;99.90;;;;;;5095702;28;20086;-57
2023/04/12 01:39:12;;;;;;;9.93;2.55;;;9.20;99.90;;;;;;5104009;28;20167;-57
2023/04/12 01:41:42;;;;;;;7.53;1.92;;;9.30;99.90;;;;;;5094280;28;20150;-56
2023/04/12 01:44:07;;;;;;;7.65;1.35;;;9.30;99.90;;;;;;5107042;28;20067;-57
2023/04/12 01:46:36;;;;;;;13.30;2.83;;;9.30;99.90;;;;;;5105725;28;20448;-56
2023/04/12 01:49:02;;;;;;;13.60;2.63;;;9.30;99.90;;;;;;5093926;28;20040;-56
2023/04/12 01:51:39;;;;;;;7.80;1.15;;;9.30;99.90;;;;;;5091883;28;20043;-58
2023/04/12 01:54:10;;;;;;;;;;;9.30;99.90;;;;;;5091373;28;20036;-57
2023/04/12 01:56:39;;;;;;;8.65;1.45;;;9.40;99.90;;;;;;5101929;28;19916;-56
2023/04/12 01:59:06;;;;;;;15.48;1.70;;;9.30;99.90;;;;;;5100227;28;20035;-53
2023/04/12 02:01:31;;;;;;;;;;;9.30;99.90;;;;;;5099947;28;20116;-55
2023/04/12 02:03:59;;;;;;;5.32;1.10;;;9.30;99.90;;;;;;5096123;28;20058;-56
2023/04/12 02:06:26;;;;;;;10.50;1.40;;;9.20;99.90;;;;;;5093653;28;20119;-55
2023/04/12 02:08:58;;;;;;;21.50;2.45;;;9.20;99.90;;;;;;5102569;28;20390;-55
2023/04/12 02:11:24;;;;;;;9.73;2.20;;;9.20;99.90;;;;;;5106774;28;20096;-56
2023/04/12 02:13:49;;;;;;;6.57;1.27;;;9.20;99.90;;;;;;5097525;28;20512;-56
2023/04/12 02:16:15;;;;;;;9.57;0.93;;;9.10;99.90;;;;;;5110205;28;20277;-57
2023/04/12 02:18:41;;;;;;;4.72;1.30;;;9.20;99.90;;;;;;5108275;28;20071;-57
2023/04/12 02:21:07;;;;;;;8.32;1.02;;;9.10;99.90;;;;;;5111746;28;20052;-58
2023/04/12 02:23:32;;;;;;;9.93;1.67;;;9.10;99.90;;;;;;5098199;28;20039;-57
2023/04/12 02:25:58;;;;;;;6.70;1.10;;;9.10;99.90;;;;;;5093766;28;20044;-56
2023/04/12 02:28:24;;;;;;;3.37;0.83;;;9.00;99.90;;;;;;5095813;28;20517;-55
2023/04/12 02:30:52;;;;;;;3.70;1.10;;;9.00;99.90;;;;;;5092939;28;20032;-55
2023/04/12 02:33:20;;;;;;;5.75;1.27;;;9.00;99.90;;;;;;5093914;28;20146;-57
2023/04/12 02:35:46;;;;;;;9.88;1.52;;;9.00;99.90;;;;;;5092757;28;20039;-56
2023/04/12 02:38:12;;;;;;;8.70;1.70;;;9.00;99.90;;;;;;5100593;28;20398;-56
2023/04/12 02:40:39;;;;;;;9.75;1.27;;;8.90;99.90;;;;;;5096915;28;20049;-56
2023/04/12 02:43:05;;;;;;;6.22;0.95;;;8.90;99.90;;;;;;5101460;28;20036;-54
2023/04/12 02:45:31;;;;;;;6.95;1.02;;;8.90;99.90;;;;;;5110037;28;20043;-56
2023/04/12 02:47:56;;;;;;;6.20;0.97;;;8.90;99.90;;;;;;5103561;28;20445;-54
2023/04/12 02:50:22;;;;;;;3.37;1.13;;;8.90;99.90;;;;;;5092999;28;20361;-57
2023/04/12 02:52:47;;;;;;;5.00;1.23;;;8.90;99.90;;;;;;5094811;28;20067;-56
2023/04/12 02:55:13;;;;;;;4.30;1.30;;;8.80;99.90;;;;;;5094616;28;20024;-58
2023/04/12 02:57:40;;;;;;;4.17;0.97;;;8.80;99.90;;;;;;5096676;28;20309;-56
2023/04/12 03:00:12;;;;;;;11.13;1.58;;;8.80;99.90;;;;;;5092765;28;20032;-55
2023/04/12 03:02:38;;;;;;;10.88;0.90;;;8.80;99.90;;;;;;5097030;28;20038;-54
2023/04/12 03:05:06;;;;;;;5.57;0.93;;;8.80;99.90;;;;;;5105794;28;20032;-57
2023/04/12 03:07:31;;;;;;;5.35;1.00;;;8.80;99.90;;;;;;5093379;28;20281;-54
2023/04/12 03:09:57;;;;;;;4.63;1.37;;;8.80;99.90;;;;;;5111126;28;20039;-56
2023/04/12 03:12:22;;;;;;;5.50;1.20;;;8.80;99.90;;;;;;5109078;28;20123;-56
2023/04/12 03:14:48;;;;;;;4.43;1.10;;;8.80;99.90;;;;;;5099877;28;20040;-57
2023/04/12 03:17:13;;;;;;;10.13;1.00;;;8.80;99.90;;;;;;5110852;28;20034;-57
2023/04/12 03:19:39;;;;;;;8.80;1.50;;;8.80;99.90;;;;;;5092340;28;20476;-55
2023/04/12 03:22:05;;;;;;;9.25;1.50;;;8.80;99.90;;;;;;5097468;28;20118;-56
2023/04/12 03:24:34;;;;;;;6.40;0.85;;;8.80;99.90;;;;;;5095977;28;20074;-58
2023/04/12 03:27:04;;;;;;;5.05;0.95;;;8.80;99.90;;;;;;5091919;28;20028;-56
2023/04/12 03:29:30;;;;;;;7.22;1.15;;;8.80;99.90;;;;;;5091717;28;20040;-57
2023/04/12 03:31:57;;;;;;;4.43;1.20;;;8.80;99.90;;;;;;5093088;28;20437;-57
2023/04/12 03:34:23;;;;;;;;;;;8.80;99.90;;;;;;5095827;28;20063;-55
2023/04/12 03:36:49;;;;;;;6.82;1.25;;;8.80;99.90;;;;;;5091957;28;19965;-55
2023/04/12 03:39:15;;;;;;;6.93;1.58;;;8.70;99.90;;;;;;5103035;28;20084;-56
2023/04/12 03:41:41;;;;;;;11.13;1.87;;;8.70;99.90;;;;;;5108837;28;20431;-56
2023/04/12 03:44:06;;;;;;;3.60;1.30;;;8.80;99.90;;;;;;5109078;28;20043;-57
2023/04/12 03:46:33;;;;;;;11.23;1.30;;;8.80;99.90;;;;;;5109990;28;20051;-56
2023/04/12 03:48:58;;;;;;;4.50;1.73;;;8.80;99.90;;;;;;5100560;28;20126;-56
2023/04/12 03:51:25;;;;;;;6.20;1.00;;;8.80;99.90;;;;;;5092566;28;20115;-54
2023/04/12 03:53:52;;;;;;;6.22;1.33;;;8.80;99.90;;;;;;5100341;28;20392;-56
2023/04/12 03:56:19;;;;;;;5.20;1.05;;;8.80;99.90;;;;;;5105008;27;20440;-55
2023/04/12 03:58:45;;;;;;;2.92;0.88;;;8.80;99.90;;;;;;5094581;28;20050;-57
2023/04/12 04:01:12;;;;;;;6.50;1.63;;;8.80;99.90;;;;;;5108187;28;20040;-56
2023/04/12 04:03:39;;;;;;;7.57;1.30;;;8.80;99.90;;;;;;5105570;28;20079;-57
2023/04/12 04:06:06;;;;;;;7.35;2.22;;;8.80;99.90;;;;;;5104306;28;20417;-56
2023/04/12 04:08:32;;;;;;;5.80;1.42;;;8.80;99.90;;;;;;5106727;28;20039;-57
2023/04/12 04:10:58;;;;;;;10.07;1.45;;;8.80;99.90;;;;;;5108349;28;20038;-57
2023/04/12 04:13:24;;;;;;;;;;;8.80;99.90;;;;;;5104028;28;20130;-55
2023/04/12 04:15:55;;;;;;;4.43;1.30;;;8.80;99.90;;;;;;5107040;28;20010;-53
2023/04/12 04:18:21;;;;;;;6.35;1.70;;;8.80;99.90;;;;;;5104631;28;20050;-57
2023/04/12 04:20:46;;;;;;;11.88;1.45;;;8.80;99.90;;;;;;5101987;28;20040;-56
2023/04/12 04:23:12;;;;;;;6.50;1.73;;;8.70;99.90;;;;;;5105445;28;20042;-57
2023/04/12 04:25:38;;;;;;;6.83;1.97;;;8.70;99.90;;;;;;5101003;28;20038;-56
2023/04/12 04:28:06;;;;;;;6.05;1.75;;;8.70;99.90;;;;;;5094534;28;20055;-55
2023/04/12 04:30:37;;;;;;;7.13;1.13;;;8.70;99.90;;;;;;5090964;28;20374;-56
2023/04/12 04:33:06;;;;;;;7.30;1.65;;;8.60;99.90;;;;;;5092412;28;20058;-56
2023/04/12 04:35:32;;;;;;;4.30;1.15;;;8.70;99.90;;;;;;5109478;28;20031;-56
2023/04/12 04:37:59;;;;;;;4.93;1.05;;;8.60;99.90;;;;;;5096150;28;20040;-56
2023/04/12 04:40:25;;;;;;;8.95;1.63;;;8.60;99.90;;;;;;5107971;28;20047;-54
2023/04/12 04:42:53;;;;;;;8.50;1.00;;;8.60;99.90;;;;;;5108065;27;20126;-56
2023/04/12 04:45:25;;;;;;;6.03;0.82;;;8.60;99.90;;;;;;5092584;28;20135;-53
2023/04/12 04:47:55;;;;;;;4.38;1.10;;;8.60;99.90;;;;;;5092400;28;20036;-58
2023/04/12 04:50:22;;;;;;;3.53;0.80;;;8.60;99.90;;;;;;5095517;28;20535;-54
2023/04/12 04:52:50;;;;;;;8.55;1.10;;;8.60;99.90;;;;;;5094923;28;20040;-54
2023/04/12 04:55:16;;;;;;;5.30;1.00;;;8.50;99.90;;;;;;5105353;28;20031;-54
2023/04/12 04:57:43;;;;;;;6.90;1.30;;;8.50;99.90;;;;;;5107239;28;20552;-57
2023/04/12 05:00:10;;;;;;;5.97;0.80;;;8.50;99.90;;;;;;5095597;28;20036;-56
2023/04/12 05:02:41;;;;;;;3.95;1.00;;;8.50;99.90;;;;;;5091149;28;20094;-53
2023/04/12 05:05:12;;;;;;;7.57;1.17;;;8.50;99.90;;;;;;5100954;28;20117;-56
2023/04/12 05:07:38;;;;;;;4.05;1.15;;;8.40;99.90;;;;;;5106995;28;20046;-58
2023/04/12 05:10:05;;;;;;;2.22;0.80;;;8.40;99.90;;;;;;5097301;28;20047;-57
2023/04/12 05:12:30;;;;;;;3.55;1.08;;;8.40;99.90;;;;;;5090989;28;20067;-54
2023/04/12 05:14:56;;;;;;;5.88;1.08;;;8.40;99.90;;;;;;5097946;28;20073;-56
2023/04/12 05:17:22;;;;;;;4.00;1.17;;;8.40;99.90;;;;;;5089253;28;20064;-54
2023/04/12 05:19:47;;;;;;;5.27;1.33;;;8.40;99.90;;;;;;5097319;28;20345;-58
2023/04/12 05:22:13;;;;;;;5.80;1.00;;;8.30;99.90;;;;;;5095713;28;20305;-56
2023/04/12 05:24:39;;;;;;;8.93;1.13;;;8.30;99.90;;;;;;5095684;28;20299;-56
2023/04/12 05:27:05;;;;;;;8.25;1.30;;;8.30;99.90;;;;;;5106312;28;20048;-57
2023/04/12 05:29:30;;;;;;;6.00;1.03;;;8.30;99.90;;;;;;5094174;28;20123;-56
2023/04/12 05:31:57;;;;;;;6.67;1.07;;;8.30;99.90;;;;;;5092079;28;20031;-55
2023/04/12 05:34:23;;;;;;;9.23;1.15;;;8.30;99.90;;;;;;5091678;28;20039;-56
2023/04/12 05:36:49;;;;;;;3.08;1.02;;;8.30;99.90;;;;;;5108905;28;20038;-56
2023/04/12 05:39:15;;;;;;;8.38;1.20;;;8.20;99.90;;;;;;5105000;28;20076;-57
2023/04/12 05:41:40;;;;;;;3.15;0.93;;;8.20;99.90;;;;;;5090171;28;20046;-54
2023/04/12 05:44:06;;;;;;;5.07;1.43;;;8.20;99.90;;;;;;5107564;28;20041;-55
2023/04/12 05:46:31;;;;;;;6.13;1.50;;;8.20;99.90;;;;;;5088468;28;20054;-56
2023/04/12 05:48:57;;;;;;;4.13;1.00;;;8.20;99.90;;;;;;5088116;28;20036;-56
2023/04/12 05:51:23;;;;;;;3.22;1.73;;;8.20;99.90;;;;;;5091585;28;20073;-55
2023/04/12 05:53:48;;;;;;;4.83;1.23;;;8.20;99.90;;;;;;5092272;28;20554;-54
2023/04/12 05:56:15;;;;;;;4.53;2.03;;;8.20;99.90;;;;;;5101888;28;20635;-53
2023/04/12 05:58:40;;;;;;;5.53;1.90;;;8.10;99.90;;;;;;5089517;28;20036;-53
2023/04/12 06:01:06;;;;;;;4.87;1.37;;;8.10;99.90;;;;;;5102240;28;20105;-55
2023/04/12 06:03:32;;;;;;;6.03;1.48;;;8.10;99.90;;;;;;5098044;28;20123;-56
2023/04/12 06:06:01;;;;;;;6.13;1.23;;;8.10;99.90;;;;;;5097246;28;20097;-53
2023/04/12 06:08:28;;;;;;;4.43;1.08;;;8.10;99.90;;;;;;5090421;28;20439;-55
2023/04/12 06:10:54;;;;;;;6.72;1.38;;;8.10;99.90;;;;;;5094742;28;20044;-53
2023/04/12 06:13:21;;;;;;;5.28;1.58;;;8.10;99.90;;;;;;5098885;28;20246;-57
2023/04/12 06:15:46;;;;;;;9.30;1.52;;;8.10;99.90;;;;;;5106465;28;20082;-56
2023/04/12 06:18:12;;;;;;;7.00;1.33;;;8.10;99.90;;;;;;5103449;28;20449;-57
2023/04/12 06:20:39;;;;;;;9.17;1.30;;;8.10;99.90;;;;;;5099211;28;20181;-56
2023/04/12 06:23:05;;;;;;;5.10;1.90;;;8.10;99.90;;;;;;5089189;28;20109;-57
2023/04/12 06:25:31;;;;;;;5.55;1.70;;;8.00;99.90;;;;;;5089653;28;20044;-57
2023/04/12 06:27:57;;;;;;;10.30;2.08;;;8.00;99.90;;;;;;5088771;28;20405;-55
2023/04/12 06:30:22;;;;;;;5.50;1.17;;;8.00;99.90;;;;;;5088107;28;20033;-56
2023/04/12 06:32:48;;;;;;;9.43;1.73;;;8.00;99.90;;;;;;5098589;28;20450;-56
2023/04/12 06:35:14;;;;;;;8.65;1.90;;;8.00;99.90;;;;;;5110226;28;20036;-55
2023/04/12 06:37:40;;;;;;;5.10;1.27;;;8.00;99.90;;;;;;5109290;28;20504;-56
2023/04/12 06:40:06;;;;;;;5.40;1.38;;;8.00;99.90;;;;;;5109520;28;20051;-54
2023/04/12 06:42:32;;;;;;;;;;;8.00;99.90;;;;;;5110078;28;20521;-56
2023/04/12 06:44:57;;;;;;;5.20;1.58;;;8.00;99.90;;;;;;5109481;28;20018;-56
2023/04/12 06:47:24;;;;;;;4.18;1.50;;;8.00;99.90;;;;;;5109081;28;20047;-58
2023/04/12 06:49:51;;;;;;;4.78;1.95;;;8.00;99.90;;;;;;5109226;28;20067;-57
2023/04/12 06:52:17;;;;;;;4.90;1.00;;;8.00;99.90;;;;;;5109396;28;20044;-54
2023/04/12 06:54:43;;;;;;;3.45;1.00;;;8.00;99.90;;;;;;5109579;28;20141;-53
2023/04/12 06:57:12;;;;;;;5.40;1.50;;;8.00;99.90;;;;;;5101290;28;20181;-55
2023/04/12 06:59:38;;;;;;;4.22;1.35;;;8.00;99.90;;;;;;5088096;28;20552;-57
2023/04/12 07:02:04;;;;;;;4.47;2.13;;;8.00;99.90;;;;;;5094648;28;20049;-57
2023/04/12 07:04:30;;;;;;;6.15;2.13;;;8.00;99.90;;;;;;5108721;28;20543;-55
2023/04/12 07:06:55;;;;;;;3.63;1.60;;;8.00;99.90;;;;;;5113135;28;20105;-56
2023/04/12 07:09:21;;;;;;;7.13;1.90;;;8.00;99.90;;;;;;5108202;28;20132;-56
2023/04/12 07:11:47;;;;;;;8.93;2.63;;;8.00;99.90;;;;;;5112608;28;20039;-55
2023/04/12 07:14:13;;;;;;;4.35;1.50;;;8.00;99.90;;;;;;5111760;28;20039;-56
2023/04/12 07:16:38;;;;;;;4.23;2.13;;;8.00;99.90;;;;;;5110376;28;20046;-56
2023/04/12 07:19:04;;;;;;;4.53;1.40;;;8.00;99.90;;;;;;5108258;28;20062;-56
2023/04/12 07:21:29;;;;;;;6.00;1.83;;;8.00;99.90;;;;;;5112637;28;20044;-54
2023/04/12 07:23:55;;;;;;;10.13;2.17;;;8.00;99.90;;;;;;5111723;28;20281;-57
2023/04/12 07:26:21;;;;;;;5.90;1.60;;;8.00;99.90;;;;;;5112273;28;20043;-57
2023/04/12 07:28:46;;;;;;;4.78;1.60;;;8.00;99.90;;;;;;5101022;28;20036;-56
2023/04/12 07:31:12;;;;;;;3.57;1.80;;;8.00;99.90;;;;;;5101916;28;20440;-57
2023/04/12 07:33:37;;;;;;;3.80;1.97;;;8.00;99.90;;;;;;5091626;28;20044;-56
2023/04/12 07:36:03;;;;;;;3.07;2.67;;;8.10;99.90;;;;;;5112410;28;20040;-57
2023/04/12 07:38:29;;;;;;;8.50;2.90;;;8.10;99.90;;;;;;5106335;28;20359;-56
2023/04/12 07:40:55;;;;;;;3.00;1.70;;;8.10;99.90;;;;;;5091576;28;20050;-56
2023/04/12 07:43:21;;;;;;;5.80;1.80;;;8.10;99.90;;;;;;5091471;28;20281;-57
2023/04/12 07:45:48;;;;;;;7.13;2.65;;;8.00;99.90;;;;;;5092345;28;20044;-53
2023/04/12 07:48:13;;;;;;;4.30;2.42;;;8.00;99.90;;;;;;5084554;28;20050;-55
2023/04/12 07:50:40;;;;;;;3.30;2.08;;;8.00;99.90;;;;;;5100465;28;20028;-56
2023/04/12 07:53:22;;;;;;;6.43;2.22;;;8.10;99.90;;;;;;5095724;28;20032;-57
2023/04/12 07:55:49;;;;;;;6.57;2.75;;;8.10;99.90;;;;;;5104645;28;20070;-57
2023/04/12 07:58:18;;;;;;;6.65;2.67;;;8.10;99.90;;;;;;5110444;28;20035;-56
2023/04/12 08:00:44;;;;;;;4.63;2.38;;;8.10;99.90;;;;;;5111796;28;20040;-57
2023/04/12 08:03:11;;;;;;;7.13;2.40;;;8.10;99.90;;;;;;5111555;28;20059;-56
2023/04/12 08:05:37;;;;;;;3.38;2.10;;;8.10;99.90;;;;;;5110037;28;20052;-56
2023/04/12 08:08:03;;;;;;;3.93;1.93;;;8.10;99.90;;;;;;5111420;28;20564;-57
2023/04/12 08:10:30;;;;;;;2.50;2.05;;;8.10;99.90;;;;;;5111483;28;20593;-58
2023/04/12 08:12:56;;;;;;;3.85;2.22;;;8.10;99.90;;;;;;5111895;27;20665;-55
2023/04/12 08:15:21;;;;;;;4.68;2.42;;;8.10;99.90;;;;;;5111980;27;20036;-57
2023/04/12 08:17:47;;;;;;;1.47;1.30;;;8.20;99.90;;;;;;5111287;28;20507;-56
2023/04/12 08:20:14;;;;;;;3.00;1.50;;;8.20;99.90;;;;;;5111935;28;20057;-57
2023/04/12 08:22:41;;;;;;;2.28;2.08;;;8.20;99.90;;;;;;5111817;27;20032;-56
2023/04/12 08:25:07;;;;;;;4.05;2.13;;;8.20;99.90;;;;;;5111817;28;20035;-54
2023/04/12 08:27:33;;;;;;;2.65;2.03;;;8.20;99.90;;;;;;5111349;28;20042;-55
2023/04/12 08:29:59;;;;;;;2.87;2.67;;;8.30;99.90;;;;;;5111211;28;20439;-57
2023/04/12 08:32:24;;;;;;;5.85;2.50;;;8.30;99.90;;;;;;5111452;28;20043;-57
2023/04/12 08:34:51;;;;;;;4.38;2.97;;;8.30;99.90;;;;;;5110291;28;20083;-54
2023/04/12 08:37:16;;;;;;;7.75;2.97;;;8.30;99.90;;;;;;5105557;28;20074;-55
2023/04/12 08:39:42;;;;;;;3.42;2.65;;;8.30;99.90;;;;;;5102498;28;20075;-56
2023/04/12 08:42:09;;;;;;;5.82;2.47;;;8.30;99.90;;;;;;5104419;28;20039;-55
2023/04/12 08:44:37;;;;;;;4.90;2.95;;;8.40;99.90;;;;;;5089619;28;20048;-57
2023/04/12 08:47:04;;;;;;;4.80;3.05;;;8.40;99.90;;;;;;5094620;28;20044;-58
2023/04/12 08:49:32;;;;;;;4.43;3.28;;;8.40;99.90;;;;;;5089724;28;20098;-55
2023/04/12 08:52:05;;;;;;;3.42;3.08;;;8.50;99.90;;;;;;5094242;28;20032;-57
2023/04/12 08:54:34;;;;;;;3.15;2.88;;;8.40;99.90;;;;;;5090875;28;20036;-55
2023/04/12 08:57:02;;;;;;;3.22;3.03;;;8.40;99.90;;;;;;5094920;28;20401;-56
2023/04/12 08:59:28;;;;;;;3.42;3.13;;;8.40;99.90;;;;;;5110541;28;20040;-54
2023/04/12 09:01:55;;;;;;;5.55;3.65;;;8.50;99.90;;;;;;5105156;28;20045;-56
2023/04/12 09:04:21;;;;;;;4.68;4.20;;;8.50;99.90;;;;;;5092101;28;20062;-56
2023/04/12 09:06:47;;;;;;;3.53;3.33;;;8.50;99.90;;;;;;5090391;27;20055;-55
2023/04/12 09:09:13;;;;;;;4.90;4.40;;;8.50;99.90;;;;;;5079583;28;20040;-58
2023/04/12 09:11:39;;;;;;;4.03;3.70;;;8.50;99.90;;;;;;5092367;28;20491;-58
2023/04/12 09:14:22;;;;;;;4.82;4.28;;;8.50;99.90;;;;;;5092071;28;20044;-58
2023/04/12 09:16:49;;;;;;;4.85;3.92;;;8.50;99.90;;;;;;5099299;28;20174;-57
2023/04/12 09:19:15;;;;;;;;;;;8.50;99.90;;;;;;5090813;28;20036;-57
2023/04/12 09:21:54;;;;;;;6.88;4.78;;;8.50;99.90;;;;;;5090575;28;19925;-57
2023/04/12 09:24:23;;;;;;;6.45;4.85;;;8.60;99.90;;;;;;5093476;28;20067;-55
2023/04/12 09:27:09;;;;;;;5.85;5.25;;;8.60;99.90;;;;;;5091550;28;20040;-57
2023/04/12 09:29:35;;;;;;;6.17;5.63;;;8.60;99.90;;;;;;5089394;28;20044;-58
2023/04/12 09:32:02;;;;;;;6.15;5.35;;;8.60;99.90;;;;;;5092891;28;20031;-58
2023/04/12 09:34:28;;;;;;;;;;;8.60;99.90;;;;;;5091059;28;20040;-58
2023/04/12 09:36:54;;;;;;;6.90;5.63;;;8.60;99.90;;;;;;5094466;28;19922;-57
2023/04/12 09:39:29;;;;;;;6.60;6.10;;;8.70;99.90;;;;;;5089887;28;20093;-56
2023/04/12 09:42:04;;;;;;;10.85;7.63;;;8.70;99.90;;;;;;5085534;28;20043;-57
2023/04/12 09:44:29;;;;;;;8.55;7.22;;;8.70;99.90;;;;;;5094604;28;20032;-57
2023/04/12 09:46:55;;;;;;;7.07;6.37;;;8.70;99.90;;;;;;5094040;28;20096;-58
2023/04/12 09:49:41;;;;;;;6.88;6.18;;;8.70;99.90;;;;;;5096971;28;20044;-57
2023/04/12 09:52:11;;;;;;;5.47;5.13;;;8.80;99.90;;;;;;5093796;28;20486;-56
2023/04/12 09:54:48;;;;;;;8.77;8.07;;;8.80;99.90;;;;;;5097533;28;20040;-58
2023/04/12 09:57:16;;;;;;;9.50;8.43;;;8.80;99.90;;;;;;5095337;28;20032;-58
2023/04/12 09:59:44;;;;;;;11.35;8.65;;;8.90;99.90;;;;;;5094783;28;20404;-57
2023/04/12 10:02:15;;;;;;;8.68;7.88;;;8.90;99.90;;;;;;5096035;28;20047;-58
2023/04/12 10:04:41;;;;;;;12.35;8.65;;;9.10;99.90;;;;;;5094166;28;20119;-57
2023/04/12 10:07:07;;;;;;;11.93;8.52;;;9.10;99.90;;;;;;5093960;28;20111;-55
2023/04/12 10:09:40;;;;;;;9.00;7.35;;;9.20;99.90;;;;;;5093926;28;20599;-58
2023/04/12 10:12:07;;;;;;;7.70;7.07;;;9.20;99.90;;;;;;5099603;28;20042;-56
2023/04/12 10:14:33;;;;;;;8.25;6.72;;;9.30;99.90;;;;;;5094482;28;20092;-57
2023/04/12 10:17:01;;;;;;;9.57;6.50;;;9.30;99.90;;;;;;5094038;28;20111;-57
2023/04/12 10:19:30;;;;;;;9.00;7.35;;;9.40;99.90;;;;;;5100033;28;20040;-57
2023/04/12 10:21:56;;;;;;;7.07;6.47;;;9.50;99.90;;;;;;5095191;28;20051;-58
2023/04/12 10:24:23;;;;;;;7.90;7.18;;;9.70;99.90;;;;;;5098667;28;20465;-54
2023/04/12 10:26:50;;;;;;;7.28;6.28;;;9.90;99.90;;;;;;5097001;28;20051;-57
2023/04/12 10:29:27;;;;;;;8.48;5.57;;;10.20;99.90;;;;;;5098833;28;20111;-56
2023/04/12 10:31:55;;;;;;;6.72;6.10;;;10.30;99.90;;;;;;5095548;28;20493;-56
2023/04/12 10:34:29;;;;;;;6.15;4.53;;;10.50;99.90;;;;;;5099142;28;20085;-57
2023/04/12 10:36:57;;;;;;;8.27;3.80;;;10.50;99.90;;;;;;5097921;28;20146;-54
2023/04/12 10:39:42;;;;;;;6.03;2.97;;;10.60;99.90;;;;;;5096594;28;20047;-57
2023/04/12 10:42:23;;;;;;;7.65;3.88;;;10.60;99.90;;;;;;5100294;28;20418;-56
2023/04/12 10:45:23;;;;;;;8.27;4.53;;;10.60;99.90;;;;;;5100145;28;20150;-57
2023/04/12 10:47:57;;;;;;;14.95;4.10;;;10.70;99.90;;;;;;5098287;28;20044;-58
2023/04/12 10:50:41;;;;;;;10.20;3.38;;;10.80;99.90;;;;;;5098006;28;20054;-58
2023/04/12 10:53:11;;;;;;;11.35;4.10;;;10.80;99.90;;;;;;5102183;28;20081;-59
2023/04/12 10:55:44;;;;;;;7.38;3.67;;;10.90;99.90;;;;;;5098317;28;20040;-59
2023/04/12 10:58:10;;;;;;;10.10;4.68;;;10.90;99.90;;;;;;5100108;28;20042;-57
2023/04/12 11:00:55;;;;;;;6.32;3.10;;;11.00;99.90;;;;;;5097800;28;20050;-58
2023/04/12 11:03:21;;;;;;;4.28;2.17;;;11.10;99.90;;;;;;5101342;28;20494;-55
2023/04/12 11:06:03;;;;;;;6.93;3.75;;;11.10;99.90;;;;;;5097659;28;20101;-57
2023/04/12 11:08:30;;;;;;;9.35;3.38;;;11.10;99.90;;;;;;5099506;28;20123;-59
2023/04/12 11:11:04;;;;;;;10.45;4.18;;;11.10;99.90;;;;;;5103468;27;20648;-57
2023/04/12 11:13:38;;;;;;;4.85;2.53;;;11.20;99.90;;;;;;5099314;28;20040;-59
2023/04/12 11:16:05;;;;;;;10.27;2.85;;;11.20;99.90;;;;;;5098347;28;20065;-57
2023/04/12 11:18:34;;;;;;;9.93;2.78;;;11.30;99.90;;;;;;5102880;28;20035;-57
2023/04/12 11:21:01;;;;;;;14.27;3.38;;;11.40;99.90;;;;;;5101115;28;20042;-58
2023/04/12 11:23:27;;;;;;;12.88;2.90;;;11.60;99.90;;;;;;5095301;28;20036;-57
2023/04/12 11:25:53;;;;;;;6.07;2.22;;;11.70;99.90;;;;;;5098855;28;20105;-57
2023/04/12 11:28:20;;;;;;;13.57;2.40;;;11.80;99.90;;;;;;5099488;28;20485;-58
2023/04/12 11:30:53;;;;;;;12.13;2.50;;;11.70;99.90;;;;;;5098282;28;20377;-56
2023/04/12 11:33:32;;;;;;;11.90;2.80;;;11.70;99.90;;;;;;5101430;28;20032;-58
2023/04/12 11:35:58;;;;;;;9.95;3.08;;;11.70;99.90;;;;;;5098578;28;20093;-57
2023/04/12 11:38:23;;;;;;;8.95;3.42;;;11.60;99.90;;;;;;5098542;28;20043;-56
2023/04/12 11:40:49;;;;;;;9.23;1.98;;;11.50;99.90;;;;;;5098328;28;20059;-56
2023/04/12 11:43:19;;;;;;;6.40;1.80;;;11.50;99.90;;;;;;5098350;28;20089;-56
2023/04/12 11:45:45;;;;;;;9.25;1.85;;;11.50;99.90;;;;;;5100286;28;20040;-57
2023/04/12 11:48:11;;;;;;;12.95;2.28;;;11.50;99.90;;;;;;5094534;28;20099;-58
2023/04/12 11:50:38;;;;;;;5.73;1.83;;;11.60;99.90;;;;;;5100248;28;20467;-57
2023/04/12 11:53:11;;;;;;;7.53;2.05;;;11.60;99.90;;;;;;5098215;28;20297;-58
2023/04/12 11:55:37;;;;;;;10.18;3.30;;;11.60;99.90;;;;;;5100202;28;20044;-57
2023/04/12 11:58:02;;;;;;;9.60;2.55;;;11.70;99.90;;;;;;5098819;28;20480;-59
2023/04/12 12:00:30;;;;;;;8.07;2.10;;;11.90;99.90;;;;;;5098525;28;20044;-56
2023/04/12 12:02:56;;;;;;;6.18;1.55;;;12.10;99.90;;;;;;5100434;28;20293;-57
2023/04/12 12:05:22;;;;;;;14.57;2.05;;;12.40;99.90;;;;;;5098438;28;20197;-58
2023/04/12 12:07:48;;;;;;;11.60;3.05;;;12.60;99.90;;;;;;5095840;28;20517;-58
2023/04/12 12:10:14;;;;;;;9.93;1.90;;;12.70;99.90;;;;;;5100966;28;20044;-59
2023/04/12 12:12:43;;;;;;;9.70;2.22;;;12.90;99.90;;;;;;5097529;28;20035;-58
2023/04/12 12:15:09;;;;;;;12.25;2.97;;;13.00;99.90;;;;;;5096847;28;20044;-59
2023/04/12 12:17:37;;;;;;;11.07;1.92;;;13.00;99.90;;;;;;5098762;28;20055;-59
2023/04/12 12:20:03;;;;;;;14.23;1.95;;;13.00;99.90;;;;;;5099498;28;20051;-58
2023/04/12 12:22:29;;;;;;;13.88;2.13;;;13.00;99.90;;;;;;5097790;28;20040;-59
2023/04/12 12:24:56;;;;;;;11.32;2.83;;;12.90;99.90;;;;;;5098888;28;20119;-57
2023/04/12 12:27:37;;;;;;;11.95;1.48;;;13.00;99.90;;;;;;5097950;28;20039;-58
2023/04/12 12:30:08;;;;;;;14.55;1.65;;;13.00;99.90;;;;;;5097043;28;20044;-56
2023/04/12 12:32:35;;;;;;;8.38;1.88;;;13.20;99.90;;;;;;5095997;28;20040;-59
2023/04/12 12:35:01;;;;;;;9.30;1.63;;;13.40;99.90;;;;;;5096965;28;20111;-59
2023/04/12 12:37:28;;;;;;;3.72;1.63;;;13.60;99.90;;;;;;5097205;28;20134;-59
2023/04/12 12:40:00;;;;;;;12.00;1.77;;;13.70;99.90;;;;;;5095362;28;20396;-58
2023/04/12 12:42:26;;;;;;;8.68;2.25;;;13.80;99.90;;;;;;5099252;28;20388;-58
2023/04/12 12:44:51;;;;;;;12.38;2.28;;;13.80;99.90;;;;;;5094342;28;20032;-58
2023/04/12 12:47:17;;;;;;;8.45;2.08;;;13.80;99.90;;;;;;5095692;28;20046;-57
2023/04/12 12:49:43;;;;;;;9.63;1.75;;;13.80;99.90;;;;;;5095455;28;20047;-57
2023/04/12 12:52:09;;;;;;;13.38;1.52;;;13.80;99.90;;;;;;5099682;28;20063;-57
2023/04/12 12:54:36;;;;;;;8.05;1.75;;;13.60;99.90;;;;;;5096400;28;20456;-57
2023/04/12 12:57:02;;;;;;;4.65;1.23;;;13.50;99.90;;;;;;5097641;28;20046;-56
2023/04/12 12:59:27;;;;;;;;;;;13.40;99.90;;;;;;5097304;28;20151;-58